Time;durP1;ratioP1;P1;durP2;ratioP2;P2;SDS_P1;SDS_P2;PMS_P1;PMS_P2;Temp;Humidity;BMP_temperature;BMP_pressure;BME280_temperature;BME280_humidity;BME280_pressure;Samples;Min_cycle;Max_cycle;Signal;HPM_P1;HPM_P2
2023/06/09 00:01:09;;;;;;;5.77;5.37;;;25.50;54.30;;;;;;5015777;28;20484;-68
2023/06/09 00:03:39;;;;;;;5.10;4.77;;;25.50;54.30;;;;;;5011358;28;20440;-69
2023/06/09 00:06:10;;;;;;;5.10;4.70;;;25.50;54.30;;;;;;5019716;28;20534;-68
2023/06/09 00:08:38;;;;;;;5.10;4.70;;;25.50;54.30;;;;;;5027672;28;20461;-68
2023/06/09 00:11:06;;;;;;;4.67;4.37;;;25.50;54.30;;;;;;5021209;28;21034;-69
2023/06/09 00:13:35;;;;;;;5.20;4.90;;;25.50;54.30;;;;;;5029282;28;20452;-69
2023/06/09 00:16:03;;;;;;;5.77;5.27;;;25.50;54.30;;;;;;5023492;28;20520;-69
2023/06/09 00:18:32;;;;;;;5.00;4.60;;;25.50;54.30;;;;;;5022786;28;20423;-67
2023/06/09 00:21:00;;;;;;;5.70;5.27;;;25.50;54.30;;;;;;5024125;28;20504;-68
2023/06/09 00:23:30;;;;;;;5.30;4.90;;;25.50;54.30;;;;;;5023405;28;20944;-68
2023/06/09 00:25:59;;;;;;;4.80;4.27;;;25.50;54.30;;;;;;5014163;28;20474;-69
2023/06/09 00:28:27;;;;;;;4.77;4.47;;;25.50;54.30;;;;;;5027372;28;20812;-69
2023/06/09 00:30:55;;;;;;;5.50;5.00;;;25.50;54.30;;;;;;5035170;28;20467;-69
2023/06/09 00:33:24;;;;;;;4.87;4.57;;;25.50;54.30;;;;;;5020748;28;20438;-69
2023/06/09 00:35:52;;;;;;;5.20;4.70;;;25.50;54.30;;;;;;5034227;28;21005;-67
2023/06/09 00:38:21;;;;;;;5.60;5.20;;;25.50;54.30;;;;;;5008941;28;20449;-68
2023/06/09 00:40:51;;;;;;;5.30;4.90;;;25.50;54.30;;;;;;5029313;28;20891;-70
2023/06/09 00:43:20;;;;;;;5.07;4.67;;;25.50;54.30;;;;;;5012640;28;20466;-69
2023/06/09 00:45:49;;;;;;;4.30;4.00;;;25.50;54.30;;;;;;5030660;28;20506;-69
2023/06/09 00:48:18;;;;;;;4.80;4.40;;;25.50;54.60;;;;;;5018836;28;20447;-69
2023/06/09 00:50:46;;;;;;;4.60;4.20;;;25.50;54.30;;;;;;5018988;28;20480;-68
2023/06/09 00:53:16;;;;;;;5.33;4.93;;;25.50;54.70;;;;;;5025372;28;20931;-68
2023/06/09 00:55:44;;;;;;;5.87;5.37;;;25.40;54.20;;;;;;5029304;28;20493;-69
2023/06/09 00:58:15;;;;;;;5.17;4.77;;;25.40;54.20;;;;;;5010863;28;20502;-69
2023/06/09 01:00:44;;;;;;;5.50;5.10;;;25.50;54.30;;;;;;5019649;28;20477;-69
2023/06/09 01:03:13;;;;;;;5.60;5.10;;;25.40;54.20;;;;;;5014461;28;20480;-68
2023/06/09 01:05:44;;;;;;;5.40;4.97;;;25.40;54.10;;;;;;5021865;28;20503;-69
2023/06/09 01:08:20;;;;;;;5.10;4.70;;;25.40;54.20;;;;;;5033606;28;20426;-69
2023/06/09 01:10:58;;;;;;;5.33;4.93;;;25.40;54.20;;;;;;5022426;28;21014;-68
2023/06/09 01:13:38;;;;;;;5.77;5.27;;;25.40;54.20;;;;;;5017962;28;20529;-69
2023/06/09 01:16:16;;;;;;;5.07;4.77;;;25.40;54.20;;;;;;5032626;28;20491;-69
2023/06/09 01:18:47;;;;;;;5.07;4.70;;;25.40;54.20;;;;;;5024101;28;20967;-69
2023/06/09 01:21:32;;;;;;;5.83;5.33;;;25.40;54.20;;;;;;5027919;28;20463;-69
2023/06/09 01:24:14;;;;;;;4.93;4.53;;;25.40;54.20;;;;;;5040746;28;20455;-69
2023/06/09 01:26:45;;;;;;;4.70;4.30;;;25.40;54.20;;;;;;5027132;28;20570;-69
2023/06/09 01:29:15;;;;;;;4.97;4.63;;;25.40;54.20;;;;;;5009844;28;20537;-69
2023/06/09 01:31:44;;;;;;;5.33;4.90;;;25.40;54.30;;;;;;5017572;28;20478;-69
2023/06/09 01:34:14;;;;;;;5.70;5.20;;;25.40;54.20;;;;;;5025398;28;20471;-69
2023/06/09 01:36:44;;;;;;;4.83;4.53;;;25.40;54.20;;;;;;5021108;28;20647;-69
2023/06/09 01:39:13;;;;;;;4.60;4.27;;;25.40;54.20;;;;;;5025666;28;21153;-69
2023/06/09 01:41:41;;;;;;;5.13;4.80;;;25.40;54.20;;;;;;5023003;28;20774;-69
2023/06/09 01:44:12;;;;;;;4.90;4.40;;;25.40;54.20;;;;;;5029068;28;20439;-69
2023/06/09 01:46:42;;;;;;;5.50;5.00;;;25.40;54.20;;;;;;5014017;28;21085;-69
2023/06/09 01:49:16;;;;;;;4.97;4.57;;;25.40;54.10;;;;;;5026847;28;20943;-69
2023/06/09 01:51:51;;;;;;;4.80;4.40;;;25.40;54.20;;;;;;5011101;28;20467;-69
2023/06/09 01:54:25;;;;;;;4.73;4.33;;;25.40;54.10;;;;;;5009971;28;20789;-69
2023/06/09 01:56:58;;;;;;;5.33;4.93;;;25.40;54.20;;;;;;5016569;28;20499;-68
2023/06/09 01:59:34;;;;;;;4.63;4.33;;;25.30;54.10;;;;;;5015359;28;20783;-69
2023/06/09 02:02:04;;;;;;;5.10;4.80;;;25.30;54.10;;;;;;5023473;28;20813;-69
2023/06/09 02:04:34;;;;;;;5.07;4.70;;;25.30;54.10;;;;;;5023634;28;20804;-69
2023/06/09 02:07:04;;;;;;;5.10;4.70;;;25.30;54.10;;;;;;5028622;28;20494;-69
2023/06/09 02:09:34;;;;;;;5.50;5.00;;;25.30;54.10;;;;;;5016811;28;20443;-69
2023/06/09 02:12:03;;;;;;;4.80;4.40;;;25.30;54.10;;;;;;5022690;28;20480;-69
2023/06/09 02:14:34;;;;;;;5.07;4.67;;;25.30;54.10;;;;;;5020106;28;20541;-69
2023/06/09 02:17:03;;;;;;;5.20;4.70;;;25.30;54.10;;;;;;5032182;28;20471;-68
2023/06/09 02:19:37;;;;;;;5.60;5.20;;;25.30;54.20;;;;;;5017694;28;20456;-69
2023/06/09 02:22:06;;;;;;;5.00;4.60;;;25.30;54.10;;;;;;5021057;28;20946;-68
2023/06/09 02:24:35;;;;;;;5.17;4.77;;;25.30;54.10;;;;;;5035930;28;20470;-68
2023/06/09 02:27:06;;;;;;;6.07;5.47;;;25.30;54.20;;;;;;5015982;28;20550;-68
2023/06/09 02:29:35;;;;;;;4.80;4.43;;;25.30;54.30;;;;;;5022972;28;20444;-69
2023/06/09 02:32:05;;;;;;;5.40;5.00;;;25.30;54.30;;;;;;5039008;28;20443;-69
2023/06/09 02:34:34;;;;;;;5.23;4.83;;;25.30;54.40;;;;;;5023430;28;22494;-68
2023/06/09 02:37:07;;;;;;;4.60;4.30;;;25.20;54.40;;;;;;5026423;28;20460;-68
2023/06/09 02:39:35;;;;;;;5.40;5.00;;;25.20;54.30;;;;;;5039501;28;20542;-68
2023/06/09 02:42:05;;;;;;;5.00;4.63;;;25.20;54.40;;;;;;5027650;28;20448;-68
2023/06/09 02:44:37;;;;;;;5.17;4.77;;;25.20;54.50;;;;;;5035711;28;20886;-68
2023/06/09 02:47:06;;;;;;;5.77;5.37;;;25.20;54.40;;;;;;5035940;28;20502;-69
2023/06/09 02:49:34;;;;;;;5.77;5.27;;;25.20;54.50;;;;;;5023491;28;20960;-68
2023/06/09 02:52:03;;;;;;;5.30;4.90;;;25.20;54.40;;;;;;5019378;28;20570;-69
2023/06/09 02:54:36;;;;;;;4.77;4.30;;;25.20;54.40;;;;;;5037243;28;20469;-69
2023/06/09 02:57:06;;;;;;;5.00;4.60;;;25.20;54.40;;;;;;5035431;28;20472;-69
2023/06/09 02:59:39;;;;;;;5.57;5.17;;;25.20;54.50;;;;;;5025344;28;20484;-69
2023/06/09 03:02:07;;;;;;;5.40;5.00;;;25.20;54.30;;;;;;5031365;28;20449;-69
2023/06/09 03:04:37;;;;;;;5.60;5.20;;;25.20;54.30;;;;;;5011066;28;20493;-69
2023/06/09 03:07:09;;;;;;;6.27;5.17;;;25.20;54.30;;;;;;5031211;28;21038;-69
2023/06/09 03:09:38;;;;;;;5.60;5.20;;;25.20;54.40;;;;;;5013903;28;20446;-69
2023/06/09 03:12:09;;;;;;;5.27;4.87;;;25.20;54.50;;;;;;5025304;28;20579;-68
2023/06/09 03:14:40;;;;;;;5.30;4.80;;;25.20;54.50;;;;;;5036147;28;20477;-69
2023/06/09 03:17:09;;;;;;;5.70;5.30;;;25.10;54.30;;;;;;5018498;28;20465;-69
2023/06/09 03:19:38;;;;;;;5.20;4.57;;;25.10;54.20;;;;;;5018184;28;20455;-69
2023/06/09 03:22:07;;;;;;;5.30;4.90;;;25.10;54.40;;;;;;5027489;28;20623;-67
2023/06/09 03:24:39;;;;;;;5.30;4.80;;;25.10;54.30;;;;;;5022764;28;20466;-69
2023/06/09 03:27:07;;;;;;;7.80;5.07;;;25.10;54.30;;;;;;5038445;28;21027;-68
2023/06/09 03:29:36;;;;;;;4.23;3.93;;;25.20;54.30;;;;;;5019727;28;20449;-69
2023/06/09 03:32:07;;;;;;;4.90;4.50;;;25.10;54.30;;;;;;5030570;28;20535;-69
2023/06/09 03:34:36;;;;;;;5.17;4.77;;;25.10;54.10;;;;;;5031576;28;21017;-69
2023/06/09 03:37:09;;;;;;;4.60;4.20;;;25.10;54.20;;;;;;5030571;28;20464;-68
2023/06/09 03:39:37;;;;;;;4.53;4.23;;;25.10;54.10;;;;;;5021361;28;20481;-68
2023/06/09 03:42:06;;;;;;;5.80;5.20;;;25.10;54.30;;;;;;5034642;28;20442;-68
2023/06/09 03:44:35;;;;;;;5.00;4.60;;;25.10;54.30;;;;;;5024327;28;20520;-68
2023/06/09 03:47:06;;;;;;;5.43;4.93;;;25.10;54.30;;;;;;5023931;28;20477;-69
2023/06/09 03:49:35;;;;;;;4.70;4.30;;;25.10;54.40;;;;;;5041060;28;20563;-69
2023/06/09 03:52:06;;;;;;;5.47;4.97;;;25.10;54.50;;;;;;5031581;28;20430;-69
2023/06/09 03:54:36;;;;;;;5.50;5.10;;;25.10;54.20;;;;;;5032034;28;20463;-68
2023/06/09 03:57:05;;;;;;;4.60;4.23;;;25.10;54.30;;;;;;5010026;28;20485;-68
2023/06/09 03:59:34;;;;;;;5.50;5.10;;;25.10;54.50;;;;;;5035680;28;20482;-68
2023/06/09 04:02:03;;;;;;;5.63;4.80;;;25.10;54.30;;;;;;5025214;28;20467;-67
2023/06/09 04:04:33;;;;;;;5.67;5.20;;;25.00;54.30;;;;;;5035446;28;20461;-69
2023/06/09 04:07:01;;;;;;;5.20;4.80;;;25.00;54.20;;;;;;5029348;28;20512;-69
2023/06/09 04:09:32;;;;;;;5.23;4.83;;;25.10;54.10;;;;;;5018799;28;20779;-68
2023/06/09 04:12:00;;;;;;;5.50;5.00;;;25.00;54.30;;;;;;5029638;28;20971;-68
2023/06/09 04:14:30;;;;;;;8.00;4.90;;;25.00;54.30;;;;;;5021746;28;20503;-69
2023/06/09 04:16:59;;;;;;;5.33;4.97;;;25.00;54.40;;;;;;5042145;28;20474;-69
2023/06/09 04:19:28;;;;;;;5.03;4.53;;;25.00;54.30;;;;;;5031076;28;20699;-68
2023/06/09 04:22:04;;;;;;;5.17;4.77;;;25.00;54.40;;;;;;5020496;28;20447;-67
2023/06/09 04:24:33;;;;;;;5.27;4.77;;;25.00;54.40;;;;;;5029528;28;20448;-67
2023/06/09 04:27:03;;;;;;;5.07;4.50;;;25.00;54.40;;;;;;5032162;28;21060;-68
2023/06/09 04:29:32;;;;;;;4.97;4.57;;;25.00;54.40;;;;;;5038276;28;21128;-69
2023/06/09 04:32:07;;;;;;;5.00;4.60;;;25.00;54.50;;;;;;5027840;28;20872;-67
2023/06/09 04:34:39;;;;;;;5.83;5.33;;;25.00;54.50;;;;;;5010083;28;21003;-68
2023/06/09 04:37:13;;;;;;;5.37;4.97;;;25.00;55.10;;;;;;5037024;28;20468;-68
2023/06/09 04:39:45;;;;;;;4.67;4.27;;;24.90;54.40;;;;;;5030468;28;20431;-69
2023/06/09 04:42:19;;;;;;;4.63;4.33;;;24.90;54.50;;;;;;5024444;28;20534;-68
2023/06/09 04:44:49;;;;;;;4.93;4.57;;;24.90;54.60;;;;;;5036123;28;20438;-69
2023/06/09 04:47:19;;;;;;;5.43;4.97;;;24.90;54.80;;;;;;5027208;28;20509;-68
2023/06/09 04:49:49;;;;;;;5.57;5.17;;;24.90;54.70;;;;;;5037617;28;20451;-69
2023/06/09 04:52:20;;;;;;;5.03;4.63;;;24.90;54.70;;;;;;5033738;28;20786;-69
2023/06/09 04:54:51;;;;;;;4.90;4.50;;;24.90;54.80;;;;;;5030893;28;20474;-67
2023/06/09 04:57:20;;;;;;;5.03;4.47;;;24.90;54.70;;;;;;5020243;28;20492;-68
2023/06/09 04:59:53;;;;;;;5.00;4.60;;;24.90;54.70;;;;;;5043586;28;20446;-70
2023/06/09 05:02:22;;;;;;;5.40;4.90;;;24.90;54.70;;;;;;5026917;28;20454;-69
2023/06/09 05:04:50;;;;;;;4.90;4.40;;;24.90;54.80;;;;;;5038287;28;20482;-69
2023/06/09 05:07:21;;;;;;;5.20;4.80;;;24.90;54.80;;;;;;5026968;28;20846;-70
2023/06/09 05:09:49;;;;;;;5.33;4.83;;;24.90;54.80;;;;;;5020809;28;20486;-69
2023/06/09 05:12:18;;;;;;;5.67;5.27;;;24.90;54.70;;;;;;5040869;28;20436;-69
2023/06/09 05:14:46;;;;;;;5.23;4.70;;;24.90;54.70;;;;;;5022354;28;20562;-69
2023/06/09 05:17:15;;;;;;;5.53;5.13;;;24.90;54.70;;;;;;5023518;28;20889;-69
2023/06/09 05:19:44;;;;;;;5.60;5.20;;;24.90;54.80;;;;;;5024415;28;20500;-69
2023/06/09 05:22:16;;;;;;;5.47;4.87;;;24.90;54.70;;;;;;5016991;28;20934;-69
2023/06/09 05:24:46;;;;;;;5.13;4.63;;;24.90;54.80;;;;;;5025318;28;20477;-68
2023/06/09 05:27:15;;;;;;;4.77;4.37;;;24.90;54.90;;;;;;5017409;28;20506;-69
2023/06/09 05:29:43;;;;;;;8.23;4.77;;;24.90;54.80;;;;;;5021557;28;20482;-68
2023/06/09 05:32:13;;;;;;;5.67;5.27;;;24.90;54.80;;;;;;5024140;28;20451;-67
2023/06/09 05:34:41;;;;;;;4.30;4.00;;;24.90;54.80;;;;;;5024608;28;20470;-69
2023/06/09 05:37:12;;;;;;;5.40;5.00;;;24.90;54.70;;;;;;5027706;28;20546;-69
2023/06/09 05:39:41;;;;;;;6.00;5.50;;;24.90;54.80;;;;;;5021568;28;20459;-68
2023/06/09 05:42:11;;;;;;;5.33;4.83;;;24.90;54.80;;;;;;5018409;28;20443;-68
2023/06/09 05:44:39;;;;;;;4.30;4.00;;;24.90;54.80;;;;;;5020952;28;20589;-69
2023/06/09 05:47:08;;;;;;;4.07;3.77;;;24.90;54.90;;;;;;5005929;28;20530;-68
2023/06/09 05:49:40;;;;;;;4.67;4.37;;;24.90;55.00;;;;;;5032212;28;20522;-68
2023/06/09 05:52:08;;;;;;;5.60;5.20;;;24.90;55.00;;;;;;5032412;28;20449;-68
2023/06/09 05:54:37;;;;;;;4.87;4.40;;;24.90;54.90;;;;;;5027994;28;21004;-68
2023/06/09 05:57:06;;;;;;;4.83;4.43;;;24.90;54.90;;;;;;5022781;28;20544;-69
2023/06/09 05:59:35;;;;;;;4.43;4.07;;;24.90;55.00;;;;;;5024379;28;20795;-68
2023/06/09 06:02:04;;;;;;;5.50;5.00;;;24.90;55.10;;;;;;5024362;28;20460;-68
2023/06/09 06:04:33;;;;;;;4.97;4.63;;;24.90;55.00;;;;;;5013551;28;20541;-69
2023/06/09 06:07:02;;;;;;;5.63;5.23;;;24.90;55.10;;;;;;5016900;28;20846;-69
2023/06/09 06:09:31;;;;;;;6.10;5.50;;;24.90;55.00;;;;;;5021285;28;20482;-69
2023/06/09 06:11:59;;;;;;;4.90;4.50;;;24.90;55.00;;;;;;5033205;28;20453;-70
2023/06/09 06:14:28;;;;;;;6.00;5.50;;;24.90;55.10;;;;;;5028815;28;20461;-67
2023/06/09 06:16:57;;;;;;;5.70;5.30;;;24.90;55.10;;;;;;5034557;28;20743;-68
2023/06/09 06:19:26;;;;;;;5.27;4.87;;;24.90;55.00;;;;;;5018001;28;20965;-68
2023/06/09 06:21:55;;;;;;;6.60;6.03;;;24.90;55.10;;;;;;5042180;28;20446;-69
2023/06/09 06:24:23;;;;;;;5.30;4.90;;;24.90;55.00;;;;;;5026186;28;20547;-69
2023/06/09 06:26:51;;;;;;;5.70;5.13;;;24.90;55.10;;;;;;5030449;28;20450;-69
2023/06/09 06:29:20;;;;;;;6.60;4.90;;;24.90;55.00;;;;;;5025587;28;20468;-68
2023/06/09 06:31:49;;;;;;;5.30;4.83;;;24.90;55.10;;;;;;5024118;28;20473;-68
2023/06/09 06:34:19;;;;;;;5.67;5.03;;;24.90;54.90;;;;;;5027821;28;20493;-67
2023/06/09 06:36:47;;;;;;;5.57;4.80;;;24.90;55.00;;;;;;5017891;28;21017;-68
2023/06/09 06:39:16;;;;;;;6.37;5.40;;;24.80;54.90;;;;;;5018195;28;20448;-67
2023/06/09 06:41:44;;;;;;;5.60;5.20;;;24.80;54.70;;;;;;5016568;28;20974;-68
2023/06/09 06:44:12;;;;;;;4.90;4.50;;;24.80;54.20;;;;;;5042117;28;20922;-69
2023/06/09 06:46:41;;;;;;;4.70;4.40;;;24.90;54.50;;;;;;5025416;28;20481;-67
2023/06/09 06:49:12;;;;;;;6.00;5.50;;;24.80;54.50;;;;;;5026178;28;20449;-68
2023/06/09 06:51:43;;;;;;;4.43;4.13;;;24.80;54.40;;;;;;5023169;28;20483;-68
2023/06/09 06:54:11;;;;;;;5.00;4.60;;;24.80;54.30;;;;;;5023696;28;20477;-68
2023/06/09 06:56:39;;;;;;;5.00;4.60;;;24.80;54.00;;;;;;5015831;28;20475;-68
2023/06/09 06:59:09;;;;;;;5.40;4.90;;;24.80;54.30;;;;;;5022222;28;20446;-68
2023/06/09 07:01:38;;;;;;;4.70;4.40;;;24.80;54.00;;;;;;5012411;28;20508;-68
2023/06/09 07:04:07;;;;;;;5.63;5.23;;;24.80;54.60;;;;;;5022224;28;20449;-69
2023/06/09 07:06:35;;;;;;;4.87;4.50;;;24.80;54.70;;;;;;5019342;28;20475;-69
2023/06/09 07:09:05;;;;;;;5.77;5.27;;;24.90;54.80;;;;;;5022128;28;20485;-68
2023/06/09 07:11:34;;;;;;;7.97;4.50;;;24.80;54.40;;;;;;5016751;28;20469;-67
2023/06/09 07:14:03;;;;;;;4.90;4.50;;;24.80;55.60;;;;;;5038153;28;20444;-68
2023/06/09 07:16:31;;;;;;;4.30;3.97;;;24.80;54.60;;;;;;5016218;28;20524;-69
2023/06/09 07:18:59;;;;;;;4.30;4.00;;;24.80;54.40;;;;;;5027263;28;20493;-68
2023/06/09 07:21:31;;;;;;;4.80;4.40;;;24.80;54.50;;;;;;5025472;28;20843;-69
2023/06/09 07:24:00;;;;;;;4.93;4.60;;;24.80;54.70;;;;;;5033007;28;20549;-68
2023/06/09 07:26:30;;;;;;;4.47;4.13;;;24.80;54.30;;;;;;5021778;28;20513;-68
2023/06/09 07:28:58;;;;;;;4.10;3.80;;;24.80;54.70;;;;;;5024720;28;20942;-68
2023/06/09 07:31:27;;;;;;;4.67;4.27;;;24.80;54.70;;;;;;5037509;28;20474;-68
2023/06/09 07:33:55;;;;;;;3.40;3.20;;;24.80;54.80;;;;;;5022371;28;20545;-69
2023/06/09 07:36:25;;;;;;;4.77;4.37;;;24.80;54.90;;;;;;5023855;28;21078;-68
2023/06/09 07:38:53;;;;;;;4.60;4.20;;;24.80;54.80;;;;;;5039908;28;20816;-68
2023/06/09 07:41:22;;;;;;;4.10;3.80;;;24.80;54.90;;;;;;5002890;28;20555;-68
2023/06/09 07:43:52;;;;;;;5.17;4.77;;;24.80;55.00;;;;;;5028735;28;20521;-68
2023/06/09 07:46:20;;;;;;;4.27;3.87;;;24.80;55.00;;;;;;5014455;28;20888;-68
2023/06/09 07:48:49;;;;;;;5.13;4.63;;;24.80;55.00;;;;;;5031850;28;21016;-67
2023/06/09 07:51:18;;;;;;;5.00;4.60;;;24.80;55.00;;;;;;5032377;28;21238;-67
2023/06/09 07:53:46;;;;;;;4.53;4.13;;;24.80;55.00;;;;;;5022898;28;20968;-69
2023/06/09 07:56:15;;;;;;;6.80;5.00;;;24.80;55.00;;;;;;5040779;28;20521;-67
2023/06/09 07:58:44;;;;;;;4.60;4.20;;;24.80;55.10;;;;;;5024764;28;20443;-67
2023/06/09 08:01:13;;;;;;;4.90;4.60;;;24.80;55.10;;;;;;5026893;28;20485;-67
2023/06/09 08:03:42;;;;;;;5.17;4.30;;;24.90;55.20;;;;;;5028936;28;20523;-67
2023/06/09 08:06:10;;;;;;;4.60;4.20;;;24.80;55.00;;;;;;5027416;28;20480;-68
2023/06/09 08:08:39;;;;;;;4.83;4.43;;;24.80;55.10;;;;;;5022786;28;20935;-68
2023/06/09 08:11:08;;;;;;;4.40;4.10;;;24.80;55.10;;;;;;5021984;28;20466;-68
2023/06/09 08:13:36;;;;;;;5.90;4.60;;;24.80;55.10;;;;;;5031587;28;21004;-68
2023/06/09 08:16:05;;;;;;;5.00;4.63;;;24.80;55.10;;;;;;5016700;28;20487;-67
2023/06/09 08:18:35;;;;;;;5.20;4.80;;;24.80;55.20;;;;;;5044370;28;20437;-68
2023/06/09 08:21:05;;;;;;;6.33;4.50;;;24.80;55.10;;;;;;5035389;28;20828;-67
2023/06/09 08:23:33;;;;;;;4.80;4.50;;;24.80;55.20;;;;;;5019476;28;20983;-68
2023/06/09 08:26:02;;;;;;;5.07;4.70;;;24.80;55.10;;;;;;5022921;28;20567;-68
2023/06/09 08:28:30;;;;;;;4.80;4.40;;;24.80;55.10;;;;;;5027723;28;20923;-68
2023/06/09 08:30:58;;;;;;;5.10;4.70;;;24.80;55.20;;;;;;5043434;28;20473;-66
2023/06/09 08:33:28;;;;;;;4.23;3.93;;;24.80;55.10;;;;;;5012760;28;20433;-68
2023/06/09 08:35:58;;;;;;;4.73;4.33;;;24.80;55.20;;;;;;5015226;28;21006;-67
2023/06/09 08:38:26;;;;;;;4.83;4.40;;;24.80;55.30;;;;;;5044253;28;20426;-67
2023/06/09 08:40:57;;;;;;;4.10;3.80;;;24.80;55.20;;;;;;5027138;28;21154;-68
2023/06/09 08:43:26;;;;;;;5.57;5.17;;;24.80;55.40;;;;;;5025476;28;20426;-68
2023/06/09 08:45:56;;;;;;;4.57;4.27;;;24.80;55.30;;;;;;5025736;28;21142;-67
2023/06/09 08:48:27;;;;;;;5.00;4.53;;;24.80;55.30;;;;;;5027373;28;20430;-68
2023/06/09 08:50:58;;;;;;;5.10;4.63;;;24.80;55.20;;;;;;5027108;28;20458;-67
2023/06/09 08:53:28;;;;;;;4.50;4.20;;;24.80;55.20;;;;;;5040341;28;20959;-68
2023/06/09 08:55:57;;;;;;;4.63;4.27;;;24.80;55.20;;;;;;5041602;28;20482;-68
2023/06/09 08:58:27;;;;;;;4.60;4.30;;;24.80;55.10;;;;;;5036314;28;20445;-68
2023/06/09 09:00:55;;;;;;;5.03;4.63;;;24.80;55.10;;;;;;5034951;28;20473;-67
2023/06/09 09:03:24;;;;;;;4.73;4.43;;;24.80;55.30;;;;;;5033201;28;21003;-68
2023/06/09 09:05:52;;;;;;;5.30;4.80;;;24.80;55.10;;;;;;5022111;28;20591;-68
2023/06/09 09:08:23;;;;;;;5.00;4.70;;;24.80;55.10;;;;;;5031950;28;20447;-68
2023/06/09 09:10:52;;;;;;;4.10;3.90;;;24.80;55.10;;;;;;5023521;28;20486;-68
2023/06/09 09:13:24;;;;;;;4.10;3.80;;;24.80;55.10;;;;;;5013444;28;20656;-67
2023/06/09 09:15:54;;;;;;;4.13;3.83;;;24.80;55.10;;;;;;5028177;28;20479;-68
2023/06/09 09:18:23;;;;;;;4.77;4.37;;;24.80;55.20;;;;;;5028519;28;21029;-68
2023/06/09 09:20:51;;;;;;;4.50;4.10;;;24.80;55.20;;;;;;5019999;28;20526;-69
2023/06/09 09:23:31;;;;;;;4.73;4.33;;;24.80;55.10;;;;;;5006434;28;20450;-67
2023/06/09 09:26:00;;;;;;;5.10;4.70;;;24.80;55.10;;;;;;5028715;28;21017;-67
2023/06/09 09:28:39;;;;;;;4.93;4.53;;;24.80;55.20;;;;;;5017608;28;21011;-68
2023/06/09 09:31:09;;;;;;;4.60;4.20;;;24.80;55.20;;;;;;5015778;28;20981;-68
2023/06/09 09:33:45;;;;;;;4.93;4.53;;;24.80;55.10;;;;;;5028567;28;20549;-68
2023/06/09 09:36:14;;;;;;;5.57;5.07;;;24.80;55.10;;;;;;5023729;28;20483;-68
2023/06/09 09:38:45;;;;;;;4.60;4.30;;;24.80;55.10;;;;;;5027453;28;20462;-67
2023/06/09 09:41:14;;;;;;;4.03;3.73;;;24.80;55.00;;;;;;5032262;28;20483;-68
2023/06/09 09:43:46;;;;;;;4.90;4.50;;;24.80;55.10;;;;;;5022880;28;20432;-68
2023/06/09 09:46:20;;;;;;;4.57;4.27;;;24.80;54.80;;;;;;5023254;28;20486;-67
2023/06/09 09:48:49;;;;;;;4.23;3.83;;;24.80;54.90;;;;;;5037352;28;20454;-68
2023/06/09 09:51:20;;;;;;;5.07;4.67;;;24.80;54.80;;;;;;5021900;28;20470;-67
2023/06/09 09:53:51;;;;;;;4.73;4.43;;;24.80;54.80;;;;;;5035454;28;20437;-69
2023/06/09 09:56:22;;;;;;;5.03;4.63;;;24.80;55.00;;;;;;5019719;28;20991;-68
2023/06/09 09:58:54;;;;;;;5.17;4.77;;;24.80;54.80;;;;;;5034334;28;21668;-68
2023/06/09 10:01:24;;;;;;;5.47;4.80;;;24.80;55.00;;;;;;5037867;28;20477;-66
2023/06/09 10:03:54;;;;;;;5.13;4.73;;;24.80;55.00;;;;;;5024791;28;20448;-67
2023/06/09 10:06:29;;;;;;;6.97;4.63;;;24.90;55.10;;;;;;5015104;28;20512;-67
2023/06/09 10:08:59;;;;;;;4.97;4.57;;;24.80;55.00;;;;;;5021682;28;20449;-67
2023/06/09 10:11:32;;;;;;;6.87;5.30;;;24.80;54.90;;;;;;5041391;28;20580;-66
2023/06/09 10:14:01;;;;;;;5.73;5.33;;;24.90;54.90;;;;;;5026268;28;20452;-68
2023/06/09 10:16:30;;;;;;;4.90;4.50;;;24.80;54.80;;;;;;5015283;28;20480;-68
2023/06/09 10:18:59;;;;;;;5.40;5.00;;;24.80;54.90;;;;;;5031929;28;20434;-67
2023/06/09 10:21:28;;;;;;;4.77;4.37;;;24.80;54.70;;;;;;5034122;28;20489;-68
2023/06/09 10:23:59;;;;;;;4.70;4.30;;;24.80;54.70;;;;;;5019387;28;20445;-67
2023/06/09 10:26:29;;;;;;;4.47;4.07;;;24.90;54.80;;;;;;5027448;28;20529;-68
2023/06/09 10:28:57;;;;;;;4.90;4.40;;;24.80;54.90;;;;;;5039563;28;20484;-67
2023/06/09 10:31:27;;;;;;;5.17;4.77;;;24.80;54.90;;;;;;5022917;28;20582;-68
2023/06/09 10:33:55;;;;;;;5.13;4.73;;;24.80;54.80;;;;;;5015153;28;20434;-66
2023/06/09 10:36:24;;;;;;;5.90;5.40;;;24.90;55.00;;;;;;5024659;28;20840;-67
2023/06/09 10:38:55;;;;;;;5.27;4.97;;;24.90;54.90;;;;;;5024213;28;20812;-68
2023/06/09 10:41:37;;;;;;;4.80;4.40;;;24.90;55.00;;;;;;5014806;28;20490;-67
2023/06/09 10:44:23;;;;;;;4.40;4.10;;;24.90;54.80;;;;;;5029282;28;20528;-68
2023/06/09 10:46:53;;;;;;;4.93;4.53;;;24.90;54.80;;;;;;5026341;28;20564;-67
2023/06/09 10:49:42;;;;;;;5.17;4.77;;;24.90;54.60;;;;;;5030409;28;20546;-68
2023/06/09 10:52:45;;;;;;;4.47;4.17;;;24.90;54.90;;;;;;5022715;28;20461;-68
2023/06/09 10:55:15;;;;;;;5.07;4.67;;;24.90;54.80;;;;;;5038339;28;21121;-67
2023/06/09 10:57:45;;;;;;;5.70;5.20;;;24.90;55.30;;;;;;5038252;28;20462;-67
2023/06/09 11:00:18;;;;;;;5.73;5.33;;;25.00;52.90;;;;;;5024091;28;21005;-68
2023/06/09 11:02:50;;;;;;;5.53;5.03;;;25.00;52.80;;;;;;5011315;28;20458;-68
2023/06/09 11:05:21;;;;;;;5.43;5.03;;;25.00;52.90;;;;;;5029439;28;20538;-67
2023/06/09 11:07:52;;;;;;;5.80;5.30;;;24.90;52.90;;;;;;5018072;28;20438;-68
2023/06/09 11:10:26;;;;;;;5.40;5.00;;;25.00;52.70;;;;;;5038004;28;20481;-68
2023/06/09 11:12:57;;;;;;;5.57;5.07;;;25.00;53.10;;;;;;5042498;28;20427;-68
2023/06/09 11:15:57;;;;;;;6.20;5.60;;;24.90;53.00;;;;;;5029779;28;20470;-67
2023/06/09 11:18:26;;;;;;;5.60;5.20;;;25.00;53.20;;;;;;5010484;28;20472;-67
2023/06/09 11:21:19;;;;;;;5.07;4.67;;;24.90;53.40;;;;;;5031466;28;20978;-68
2023/06/09 11:24:03;;;;;;;5.70;5.20;;;24.90;53.50;;;;;;5025907;28;20560;-68
2023/06/09 11:26:34;;;;;;;5.13;4.63;;;24.90;53.60;;;;;;5023252;28;20576;-68
2023/06/09 11:29:22;;;;;;;5.43;5.03;;;24.90;53.70;;;;;;5030283;28;20461;-67
2023/06/09 11:31:51;;;;;;;4.70;4.30;;;25.00;53.60;;;;;;5036453;28;20543;-67
2023/06/09 11:34:49;;;;;;;4.80;4.30;;;24.90;53.80;;;;;;5014376;28;20457;-66
2023/06/09 11:37:20;;;;;;;5.20;4.80;;;25.00;53.90;;;;;;5010719;28;20474;-67
2023/06/09 11:39:49;;;;;;;4.50;4.13;;;25.00;53.90;;;;;;5027922;28;20446;-68
2023/06/09 11:42:18;;;;;;;4.50;4.10;;;24.90;53.80;;;;;;5025645;28;20946;-68
2023/06/09 11:44:49;;;;;;;4.57;4.27;;;25.00;53.90;;;;;;5025536;28;20479;-69
2023/06/09 11:47:29;;;;;;;4.70;4.40;;;25.00;53.50;;;;;;5020132;28;20501;-67
2023/06/09 11:50:07;;;;;;;4.30;4.00;;;25.00;53.90;;;;;;5030322;28;20431;-67
2023/06/09 11:52:36;;;;;;;5.50;5.10;;;25.00;54.00;;;;;;5013012;28;21323;-68
2023/06/09 11:55:06;;;;;;;5.10;4.67;;;25.00;53.90;;;;;;5014460;28;20487;-68
2023/06/09 11:57:35;;;;;;;5.00;4.60;;;25.00;53.90;;;;;;5032891;28;20583;-68
2023/06/09 12:00:12;;;;;;;4.57;4.20;;;25.00;54.50;;;;;;5035837;28;20454;-68
2023/06/09 12:02:42;;;;;;;5.43;4.93;;;25.00;53.90;;;;;;5020297;28;20488;-68
2023/06/09 12:05:12;;;;;;;4.90;4.50;;;25.00;53.90;;;;;;5017791;28;21432;-68
2023/06/09 12:07:43;;;;;;;5.07;4.67;;;25.00;53.90;;;;;;5026949;28;20686;-68
2023/06/09 12:10:12;;;;;;;6.03;5.00;;;25.00;53.90;;;;;;5027938;28;20505;-67
2023/06/09 12:12:45;;;;;;;5.30;4.90;;;25.00;53.40;;;;;;5013782;28;20565;-68
2023/06/09 12:15:16;;;;;;;4.80;4.40;;;25.00;53.60;;;;;;5004504;28;20554;-68
2023/06/09 12:17:48;;;;;;;4.80;4.40;;;25.00;53.80;;;;;;5032444;28;20820;-68
2023/06/09 12:20:24;;;;;;;4.43;4.13;;;25.10;53.50;;;;;;5025461;28;20879;-68
2023/06/09 12:22:54;;;;;;;4.77;4.47;;;25.10;54.00;;;;;;5025765;28;20470;-68
2023/06/09 12:25:25;;;;;;;5.73;5.27;;;25.10;53.60;;;;;;5027199;28;20513;-68
2023/06/09 12:27:55;;;;;;;5.10;4.70;;;25.10;53.70;;;;;;5035488;28;20440;-68
2023/06/09 12:30:36;;;;;;;5.20;4.80;;;25.10;53.60;;;;;;5033369;28;20961;-68
2023/06/09 12:33:08;;;;;;;5.00;4.60;;;25.10;53.60;;;;;;5011123;28;20455;-68
2023/06/09 12:35:39;;;;;;;6.00;5.40;;;25.10;53.60;;;;;;5022581;28;20475;-67
2023/06/09 12:38:15;;;;;;;5.53;5.13;;;25.10;54.30;;;;;;5023682;28;20560;-68
2023/06/09 12:40:48;;;;;;;6.50;5.80;;;25.40;52.40;;;;;;5024989;28;20942;-67
2023/06/09 12:43:18;;;;;;;6.70;6.20;;;25.60;51.20;;;;;;5023354;28;20620;-66
2023/06/09 12:45:49;;;;;;;6.90;6.30;;;25.90;50.70;;;;;;5013908;28;21136;-67
2023/06/09 12:48:18;;;;;;;6.50;5.90;;;26.00;48.90;;;;;;5023382;28;20477;-68
2023/06/09 12:50:47;;;;;;;6.50;6.00;;;26.10;48.80;;;;;;5021274;28;20828;-68
2023/06/09 12:53:16;;;;;;;6.43;5.93;;;26.10;49.60;;;;;;5026668;28;20454;-68
2023/06/09 12:55:45;;;;;;;6.27;5.40;;;26.10;50.00;;;;;;5028718;28;20488;-66
2023/06/09 12:58:13;;;;;;;6.47;5.87;;;26.10;50.40;;;;;;5032212;28;20880;-67
2023/06/09 13:00:42;;;;;;;6.30;5.70;;;26.00;50.50;;;;;;5022997;28;20846;-67
2023/06/09 13:03:12;;;;;;;5.93;5.43;;;26.00;50.20;;;;;;5019066;28;20544;-66
2023/06/09 13:05:42;;;;;;;6.60;5.77;;;26.00;50.50;;;;;;5034968;28;20474;-68